Hisle, Kentucky
Current Conditions -  °F | °C
As of 6:55 PM on Sunday 23 Nov 2014 (Local Time) from KI39 Reporting Station
Overcast Overcast  
Wind Chill: 13°   Ceiling: 6000
Heat Index: 13°   Visibility: 10mi
Dew Point: 12°   Wind: 14mph
Humidity: 94%   Direction: 130°SE
Pressure: 29.49"   Gusts: NA
Location:  37.4446°N, 84.0227°W
Report Text: KI39 232355Z AUTO 13012KT 10SM SCT026 BKN060 OVC090 13/12 A2949 RMK AO2
Loading
Personal Weather Stations






























Interactive Weather Map New forecast layout! Learn more

10-Day Weather Forecast

Advertisements
Track Severe Weather on mobile